Time;durP1;ratioP1;P1;durP2;ratioP2;P2;SDS_P1;SDS_P2;PMS_P1;PMS_P2;Temp;Humidity;BMP_temperature;BMP_pressure;BME280_temperature;BME280_humidity;BME280_pressure;Samples;Min_cycle;Max_cycle;Signal;HPM_P1;HPM_P2
2023/07/23 00:02:11;;;;;;;7.43;5.40;;;16.00;1.00;;;;;;2612107;54;20151;-66
2023/07/23 00:12:17;;;;;;;7.30;6.23;;;16.00;1.00;;;;;;2614518;54;20411;-67
2023/07/23 00:18:04;;;;;;;6.80;6.10;;;16.10;1.00;;;;;;2614027;39;20789;-67
2023/07/23 00:23:52;;;;;;;7.63;6.20;;;16.00;1.00;;;;;;2613679;54;20189;-67
2023/07/23 00:29:41;;;;;;;8.50;5.43;;;16.00;1.00;;;;;;2612844;54;20171;-68
2023/07/23 00:35:28;;;;;;;6.77;4.87;;;16.10;1.00;;;;;;2612764;54;21044;-67
2023/07/23 00:41:17;;;;;;;7.27;5.80;;;16.00;1.00;;;;;;2613343;54;20148;-68
2023/07/23 00:47:06;;;;;;;9.43;5.57;;;16.00;1.00;;;;;;2614047;39;20836;-66
2023/07/23 00:52:54;;;;;;;6.17;5.57;;;16.10;1.00;;;;;;2611902;54;20383;-67
2023/07/23 00:58:42;;;;;;;7.50;5.10;;;16.10;1.00;;;;;;2613873;54;20155;-67
2023/07/23 01:07:52;;;;;;;7.10;5.90;;;16.20;1.00;;;;;;2612849;54;20391;-72
2023/07/23 01:13:40;;;;;;;6.13;5.30;;;16.10;1.00;;;;;;2613064;54;20395;-73
2023/07/23 01:19:27;;;;;;;5.20;4.80;;;16.10;1.00;;;;;;2612849;54;20239;-72
2023/07/23 01:25:15;;;;;;;8.37;5.83;;;16.10;1.00;;;;;;2613507;54;20150;-72
2023/07/23 01:31:03;;;;;;;8.37;6.20;;;16.10;1.00;;;;;;2614566;54;20154;-72
2023/07/23 01:36:52;;;;;;;9.53;6.43;;;16.20;1.00;;;;;;2615316;39;20547;-72
2023/07/23 01:42:42;;;;;;;8.30;6.33;;;16.50;1.00;;;;;;2613739;39;20793;-73
2023/07/23 01:48:29;;;;;;;7.33;6.50;;;16.50;1.00;;;;;;2614614;54;20457;-74
2023/07/23 01:54:17;;;;;;;9.40;7.20;;;16.30;1.00;;;;;;2614701;54;20139;-73
2023/07/23 02:00:05;;;;;;;7.10;6.20;;;16.50;1.00;;;;;;2613837;54;20178;-73
2023/07/23 02:09:16;;;;;;;6.97;6.30;;;16.50;1.00;;;;;;2615182;54;20422;-72
2023/07/23 02:15:04;;;;;;;16.43;7.43;;;16.70;1.00;;;;;;2613789;54;20140;-73
2023/07/23 02:20:52;;;;;;;9.40;7.00;;;16.70;1.00;;;;;;2615328;54;20424;-71
2023/07/23 02:26:40;;;;;;;7.73;7.07;;;16.60;1.00;;;;;;2614224;54;20139;-70
2023/07/23 02:32:27;;;;;;;7.67;6.90;;;16.70;1.00;;;;;;2614367;54;20832;-71
2023/07/23 02:38:15;;;;;;;9.50;6.80;;;16.80;1.00;;;;;;2614313;54;20183;-71
2023/07/23 02:44:03;;;;;;;8.00;6.93;;;16.90;1.00;;;;;;2614796;54;20122;-70
2023/07/23 02:49:51;;;;;;;9.40;7.13;;;17.10;1.00;;;;;;2612364;31;20864;-70
2023/07/23 02:55:39;;;;;;;8.10;7.50;;;17.30;1.00;;;;;;2613998;54;20154;-69
2023/07/23 03:01:26;;;;;;;8.37;7.63;;;17.30;1.00;;;;;;2613709;54;20171;-71
2023/07/23 03:04:37;;;;;;;7.33;6.73;;;17.40;1.00;;;;;;2614121;54;20535;-68
2023/07/23 03:07:03;;;;;;;8.23;7.30;;;17.30;1.00;;;;;;2613408;54;20143;-69
2023/07/23 03:12:50;;;;;;;8.57;7.63;;;17.40;1.00;;;;;;2614211;54;20266;-69
2023/07/23 03:18:38;;;;;;;8.40;7.80;;;17.50;1.00;;;;;;2614307;54;20154;-69
2023/07/23 03:24:25;;;;;;;9.00;8.00;;;17.50;1.00;;;;;;2613358;54;20191;-68
2023/07/23 03:30:13;;;;;;;8.67;8.07;;;17.50;1.00;;;;;;2614728;54;20130;-70
2023/07/23 03:36:01;;;;;;;9.77;8.60;;;17.60;1.00;;;;;;2613519;54;20223;-69
2023/07/23 03:41:49;;;;;;;9.53;8.63;;;17.60;1.00;;;;;;2614735;54;20122;-69
2023/07/23 03:47:37;;;;;;;9.50;8.60;;;17.90;1.00;;;;;;2613036;54;21084;-70
2023/07/23 03:53:25;;;;;;;9.37;8.67;;;18.00;1.00;;;;;;2613731;54;20226;-69
2023/07/23 03:59:12;;;;;;;9.03;8.00;;;17.90;1.00;;;;;;2612923;54;20122;-68
2023/07/23 04:09:06;;;;;;;9.93;9.10;;;18.10;1.00;;;;;;2613873;54;20387;-69
2023/07/23 04:14:53;;;;;;;8.77;8.17;;;18.30;1.00;;;;;;2613626;54;20399;-70
2023/07/23 04:20:41;;;;;;;9.23;8.47;;;18.20;1.00;;;;;;2613804;54;20188;-69
2023/07/23 04:26:30;;;;;;;10.53;9.60;;;18.50;1.00;;;;;;2612262;54;20411;-69
2023/07/23 04:32:17;;;;;;;9.90;9.00;;;18.40;1.00;;;;;;2614132;54;20415;-69
2023/07/23 04:38:05;;;;;;;10.50;9.50;;;18.60;1.00;;;;;;2613324;54;20126;-69
2023/07/23 04:43:53;;;;;;;9.63;8.93;;;18.60;1.00;;;;;;2614080;47;20453;-70
2023/07/23 04:49:41;;;;;;;10.57;9.57;;;18.70;1.00;;;;;;2612898;54;20395;-69
2023/07/23 04:55:28;;;;;;;9.70;9.10;;;18.90;1.00;;;;;;2611488;39;20712;-68
2023/07/23 05:01:16;;;;;;;10.80;9.90;;;18.90;1.00;;;;;;2612574;54;20657;-68
2023/07/23 05:04:37;;;;;;;10.07;9.37;;;19.00;1.00;;;;;;2613312;54;20415;-68
2023/07/23 05:07:03;;;;;;;9.27;8.67;;;19.00;1.00;;;;;;2613026;49;20214;-69
2023/07/23 05:12:50;;;;;;;9.67;8.97;;;19.20;1.00;;;;;;2614558;54;20134;-69
2023/07/23 05:18:38;;;;;;;10.20;9.50;;;19.20;1.00;;;;;;2613322;54;20151;-68
2023/07/23 05:24:26;;;;;;;10.30;9.60;;;19.20;1.00;;;;;;2615052;39;20264;-70
2023/07/23 05:30:16;;;;;;;10.20;9.60;;;19.30;1.00;;;;;;2614227;54;20123;-72
2023/07/23 05:36:04;;;;;;;10.33;9.73;;;19.40;1.00;;;;;;2612304;54;20392;-69
2023/07/23 05:41:51;;;;;;;9.97;9.27;;;19.40;1.00;;;;;;2613956;54;20950;-69
2023/07/23 05:47:39;;;;;;;9.80;9.20;;;19.40;1.00;;;;;;2612395;46;20145;-70
2023/07/23 05:53:27;;;;;;;11.23;10.30;;;19.60;1.00;;;;;;2614371;54;20162;-69
2023/07/23 05:59:15;;;;;;;11.20;10.30;;;19.60;1.00;;;;;;2612339;54;20652;-69
2023/07/23 06:09:06;;;;;;;9.57;8.97;;;19.90;1.00;;;;;;2614287;54;20395;-68
2023/07/23 06:14:54;;;;;;;10.40;9.60;;;20.30;1.00;;;;;;2612525;54;20384;-67
2023/07/23 06:20:41;;;;;;;10.00;9.40;;;20.30;1.00;;;;;;2613062;54;20166;-68
2023/07/23 06:26:30;;;;;;;10.70;10.00;;;20.50;1.00;;;;;;2611175;46;20153;-70
2023/07/23 06:32:18;;;;;;;11.17;10.37;;;20.60;1.00;;;;;;2610140;54;20421;-69
2023/07/23 06:38:06;;;;;;;9.87;9.37;;;20.40;1.00;;;;;;2611097;54;20130;-68
2023/07/23 06:43:53;;;;;;;11.40;10.60;;;20.30;1.00;;;;;;2611049;54;20166;-68
2023/07/23 06:49:41;;;;;;;10.33;9.83;;;20.30;1.00;;;;;;2613730;54;20231;-69
2023/07/23 06:55:30;;;;;;;10.17;9.57;;;20.30;1.00;;;;;;2609208;54;20649;-69
2023/07/23 07:01:20;;;;;;;11.40;10.53;;;20.20;1.00;;;;;;2613925;54;20424;-68
2023/07/23 07:04:37;;;;;;;10.30;9.50;;;20.20;1.00;;;;;;2613378;54;20427;-68
2023/07/23 07:07:03;;;;;;;10.20;9.70;;;20.00;1.00;;;;;;2613822;39;20800;-68
2023/07/23 07:12:51;;;;;;;9.77;9.27;;;20.10;1.00;;;;;;2612631;54;20408;-68
2023/07/23 07:18:39;;;;;;;11.43;10.53;;;20.10;1.00;;;;;;2613539;54;20256;-68
2023/07/23 07:24:27;;;;;;;10.17;9.63;;;20.40;1.00;;;;;;2612819;39;21070;-68
2023/07/23 07:30:15;;;;;;;10.90;10.20;;;20.80;1.00;;;;;;2613920;54;20391;-71
2023/07/23 07:36:03;;;;;;;12.60;11.33;;;20.70;1.00;;;;;;2612846;54;20153;-68
2023/07/23 07:41:53;;;;;;;10.83;10.10;;;20.00;1.00;;;;;;2613937;54;20147;-70
2023/07/23 07:47:41;;;;;;;10.67;10.17;;;19.40;1.00;;;;;;2613510;39;20859;-70
2023/07/23 07:53:29;;;;;;;9.50;9.00;;;19.20;1.00;;;;;;2613780;54;20167;-68
2023/07/23 07:59:19;;;;;;;10.70;10.00;;;18.70;1.00;;;;;;2611856;54;20413;-68
2023/07/23 08:09:10;;;;;;;10.13;9.17;;;19.00;1.00;;;;;;2613374;46;20434;-70
2023/07/23 08:14:58;;;;;;;10.30;9.70;;;19.20;1.00;;;;;;2613472;54;20412;-68
2023/07/23 08:20:47;;;;;;;9.20;8.73;;;19.60;1.00;;;;;;2613853;54;20423;-69
2023/07/23 08:26:39;;;;;;;10.13;9.53;;;19.60;1.00;;;;;;2612712;47;20419;-70
2023/07/23 08:32:28;;;;;;;9.30;8.73;;;19.00;1.00;;;;;;2614410;31;20883;-69
2023/07/23 08:38:16;;;;;;;9.10;8.57;;;19.10;1.00;;;;;;2614260;54;20937;-68
2023/07/23 08:44:32;;;;;;;9.77;9.23;;;19.40;1.00;;;;;;2614267;54;20379;-69
2023/07/23 08:50:20;;;;;;;8.00;7.50;;;18.90;1.00;;;;;;2613696;54;20455;-69
2023/07/23 08:56:08;;;;;;;7.70;7.00;;;18.50;1.00;;;;;;2612608;54;20399;-68
2023/07/23 09:01:58;;;;;;;6.60;6.00;;;17.80;1.00;;;;;;2613665;54;20131;-69
2023/07/23 09:04:37;;;;;;;6.50;5.83;;;17.60;1.00;;;;;;2611893;54;20407;-69
2023/07/23 09:07:08;;;;;;;6.07;5.57;;;17.00;1.00;;;;;;2612619;54;20447;-69
2023/07/23 09:12:56;;;;;;;6.37;5.43;;;17.00;1.00;;;;;;2615148;54;20461;-68
2023/07/23 09:18:44;;;;;;;12.60;5.40;;;17.20;1.00;;;;;;2614432;39;20540;-68
2023/07/23 09:24:35;;;;;;;8.87;4.83;;;17.00;1.00;;;;;;2614100;54;20388;-67
2023/07/23 09:30:24;;;;;;;11.70;5.47;;;16.50;1.00;;;;;;2613395;54;20399;-67
2023/07/23 09:36:12;;;;;;;6.67;4.70;;;16.40;1.00;;;;;;2613641;54;20425;-68
2023/07/23 09:42:04;;;;;;;6.37;5.50;;;16.20;1.00;;;;;;2614020;54;20380;-68
2023/07/23 09:47:53;;;;;;;6.53;5.23;;;16.20;1.00;;;;;;2614301;54;20491;-68
2023/07/23 09:53:45;;;;;;;6.17;5.10;;;16.20;1.00;;;;;;2612120;54;21108;-67
2023/07/23 09:59:36;;;;;;;6.77;5.10;;;16.20;1.00;;;;;;2613249;54;20395;-68
2023/07/23 10:09:04;;;;;;;4.60;3.87;;;16.40;1.00;;;;;;2613772;54;20406;-67
2023/07/23 10:12:07;;;;;;;5.23;4.50;;;16.50;1.00;;;;;;2612379;54;20518;-67
2023/07/23 10:14:33;;;;;;;7.40;4.60;;;16.20;1.00;;;;;;2613811;47;20462;-68
2023/07/23 10:20:21;;;;;;;6.23;5.27;;;15.90;21.30;;;;;;2614186;54;20181;-68
2023/07/23 10:26:21;;;;;;;6.90;5.43;;;16.10;22.50;;;;;;2611558;54;20391;-67
2023/07/23 10:51:50;;;;;;;7.10;6.00;;;16.70;42.40;;;;;;2612171;54;20442;-67
2023/07/23 10:57:42;;;;;;;11.10;5.57;;;17.10;8.30;;;;;;2611892;54;20409;-67
2023/07/23 11:03:30;;;;;;;6.67;5.40;;;17.20;20.10;;;;;;2612637;54;20417;-68
2023/07/23 11:09:25;;;;;;;3.77;3.47;;;17.70;16.40;;;;;;2612928;54;20528;-68
2023/07/23 11:15:15;;;;;;;6.00;5.17;;;17.70;56.10;;;;;;2611957;54;20399;-69
2023/07/23 11:21:14;;;;;;;6.03;5.40;;;17.40;63.50;;;;;;2618063;54;20414;-67
2023/07/23 11:27:03;;;;;;;5.63;5.10;;;17.40;59.70;;;;;;2617980;54;20384;-67
2023/07/23 11:32:51;;;;;;;5.57;5.07;;;17.00;99.90;;;;;;2617177;54;20373;-68
2023/07/23 11:38:39;;;;;;;5.80;5.27;;;16.90;99.90;;;;;;2617573;54;20379;-67
2023/07/23 11:44:27;;;;;;;6.07;4.80;;;17.00;99.90;;;;;;2617808;54;20145;-68
2023/07/23 11:50:17;;;;;;;5.73;5.07;;;16.80;99.90;;;;;;2617930;54;20386;-68
2023/07/23 11:56:10;;;;;;;9.93;4.63;;;16.90;99.90;;;;;;2616360;54;20426;-68
2023/07/23 12:01:58;;;;;;;6.33;5.63;;;17.00;99.90;;;;;;2612703;54;20426;-68
2023/07/23 12:07:46;;;;;;;4.40;3.33;;;17.20;99.90;;;;;;2616796;54;20365;-68
2023/07/23 12:13:34;;;;;;;4.30;3.47;;;17.30;99.90;;;;;;2617496;54;21057;-69
2023/07/23 12:22:55;;;;;;;5.20;4.70;;;17.20;99.90;;;;;;2611899;54;20430;-68
2023/07/23 12:28:44;;;;;;;6.47;4.63;;;17.10;99.90;;;;;;2609800;54;20395;-68
2023/07/23 12:34:32;;;;;;;5.67;4.10;;;17.00;99.90;;;;;;2613516;54;20407;-68
2023/07/23 12:40:20;;;;;;;5.03;4.13;;;17.00;99.90;;;;;;2614809;54;20130;-68
2023/07/23 12:46:08;;;;;;;4.70;3.90;;;16.90;99.90;;;;;;2613981;54;20134;-70
2023/07/23 12:51:55;;;;;;;5.90;4.03;;;16.90;99.90;;;;;;2613218;54;20210;-68
2023/07/23 12:57:43;;;;;;;4.70;4.03;;;17.00;99.90;;;;;;2612861;54;20154;-68
2023/07/23 13:03:33;;;;;;;5.13;4.57;;;17.10;99.90;;;;;;2613364;54;20147;-69
2023/07/23 13:09:20;;;;;;;4.70;4.17;;;17.10;99.90;;;;;;2614194;54;20468;-68
2023/07/23 13:15:08;;;;;;;4.00;3.60;;;17.10;99.90;;;;;;2613637;54;20138;-68
2023/07/23 13:18:09;;;;;;;5.30;4.80;;;17.20;99.90;;;;;;2613182;54;20509;-69
2023/07/23 13:20:35;;;;;;;4.83;4.40;;;17.40;99.90;;;;;;2612877;47;21020;-67
2023/07/23 13:26:25;;;;;;;6.00;4.40;;;17.70;99.90;;;;;;2610844;54;20177;-66
2023/07/23 13:32:13;;;;;;;4.70;4.30;;;17.90;99.90;;;;;;2613197;54;20429;-67
2023/07/23 13:38:00;;;;;;;4.27;3.87;;;18.50;99.90;;;;;;2614609;54;20715;-67
2023/07/23 13:43:48;;;;;;;4.30;3.20;;;18.50;49.30;;;;;;2613868;54;20134;-67
2023/07/23 13:49:36;;;;;;;6.47;3.90;;;19.00;1.00;;;;;;2614296;54;20167;-67
2023/07/23 13:55:24;;;;;;;6.50;4.20;;;19.20;1.00;;;;;;2614163;54;20130;-68
2023/07/23 14:01:11;;;;;;;4.40;3.10;;;19.10;1.00;;;;;;2613078;54;20190;-67
2023/07/23 14:07:00;;;;;;;3.80;3.27;;;18.80;1.00;;;;;;2612695;54;20826;-66
2023/07/23 14:12:47;;;;;;;11.70;3.60;;;18.70;1.00;;;;;;2613775;54;20178;-67
2023/07/23 14:22:41;;;;;;;4.97;2.40;;;18.90;1.00;;;;;;2614329;54;20451;-67
2023/07/23 14:28:28;;;;;;;7.30;3.50;;;19.40;1.00;;;;;;2613782;54;20391;-67
2023/07/23 14:34:16;;;;;;;4.10;3.80;;;20.00;1.00;;;;;;2608593;54;20134;-66
2023/07/23 14:40:05;;;;;;;3.77;3.13;;;19.80;1.00;;;;;;2614180;54;20780;-67
2023/07/23 14:45:52;;;;;;;3.07;2.83;;;19.80;1.00;;;;;;2612297;54;20491;-68
2023/07/23 14:51:40;;;;;;;3.40;3.20;;;20.00;1.00;;;;;;2613721;39;20610;-67
2023/07/23 14:57:28;;;;;;;8.93;3.50;;;20.40;1.00;;;;;;2612274;46;20165;-67
2023/07/23 15:03:18;;;;;;;6.87;3.40;;;20.80;1.00;;;;;;2613163;54;20171;-68
2023/07/23 15:09:08;;;;;;;3.83;3.10;;;21.40;1.00;;;;;;2613835;39;20798;-67
2023/07/23 15:14:57;;;;;;;4.37;3.97;;;21.40;1.00;;;;;;2611805;54;20513;-69
2023/07/23 15:18:09;;;;;;;4.63;3.83;;;21.90;1.00;;;;;;2610872;51;20414;-68
2023/07/23 15:20:35;;;;;;;4.57;3.83;;;21.60;1.00;;;;;;2613186;54;20502;-67
2023/07/23 15:26:27;;;;;;;7.80;4.10;;;22.20;1.00;;;;;;2613237;54;20387;-68
2023/07/23 15:32:15;;;;;;;4.70;4.30;;;22.60;1.00;;;;;;2614433;54;20399;-68
2023/07/23 15:38:03;;;;;;;4.67;4.13;;;23.20;1.00;;;;;;2613044;54;20163;-68
2023/07/23 15:43:51;;;;;;;7.20;4.43;;;22.90;1.00;;;;;;2613543;54;20154;-67
2023/07/23 15:49:39;;;;;;;4.97;4.60;;;22.50;1.00;;;;;;2613255;54;20167;-68
2023/07/23 15:55:26;;;;;;;17.20;4.00;;;22.40;1.00;;;;;;2611524;54;20256;-69
2023/07/23 16:01:14;;;;;;;4.93;4.63;;;22.20;1.00;;;;;;2611151;54;20138;-68
2023/07/23 16:07:02;;;;;;;5.37;4.53;;;22.10;1.00;;;;;;2613906;54;20134;-68
2023/07/23 16:12:50;;;;;;;5.20;4.70;;;21.90;1.00;;;;;;2613927;54;20158;-67
2023/07/23 16:29:03;;;;;;;5.97;5.47;;;22.50;1.00;;;;;;2610567;54;20423;-69
2023/07/23 16:34:51;;;;;;;5.83;5.43;;;24.40;1.00;;;;;;2611565;54;20159;-70
2023/07/23 16:40:43;;;;;;;6.17;5.73;;;25.00;1.00;;;;;;2611995;54;20451;-68
2023/07/23 16:46:31;;;;;;;6.60;5.37;;;23.50;1.00;;;;;;2611008;54;20354;-68
2023/07/23 16:52:18;;;;;;;5.03;4.63;;;22.50;1.00;;;;;;2612717;54;20134;-70
2023/07/23 16:58:07;;;;;;;7.80;6.50;;;22.40;1.00;;;;;;2613748;54;20135;-69
2023/07/23 17:03:55;;;;;;;7.33;5.63;;;22.50;1.00;;;;;;2613593;54;20415;-69
2023/07/23 17:09:43;;;;;;;6.30;5.80;;;22.30;1.00;;;;;;2614498;39;20515;-69
2023/07/23 17:15:31;;;;;;;6.40;5.80;;;22.10;1.00;;;;;;2613675;54;20727;-69
2023/07/23 17:18:10;;;;;;;6.23;5.83;;;22.00;1.00;;;;;;2614009;54;20435;-69
2023/07/23 17:20:40;;;;;;;6.80;6.30;;;22.00;1.00;;;;;;2613362;54;20575;-69
2023/07/23 17:26:27;;;;;;;6.03;5.53;;;21.80;1.00;;;;;;2613909;54;20446;-69
2023/07/23 17:32:16;;;;;;;6.23;5.40;;;22.00;1.00;;;;;;2614587;39;20543;-69
2023/07/23 17:38:03;;;;;;;6.90;5.50;;;22.00;1.00;;;;;;2614349;54;20395;-69
2023/07/23 17:43:51;;;;;;;5.50;5.00;;;21.90;1.00;;;;;;2614760;54;20126;-68
2023/07/23 17:49:39;;;;;;;5.17;4.77;;;21.90;1.00;;;;;;2613109;54;20130;-69
2023/07/23 17:55:27;;;;;;;4.77;4.40;;;22.00;1.00;;;;;;2613917;54;20122;-68
2023/07/23 18:01:15;;;;;;;4.90;4.50;;;22.10;1.00;;;;;;2613422;54;20130;-70
2023/07/23 18:07:03;;;;;;;4.33;3.90;;;22.20;1.00;;;;;;2612626;54;20407;-69
2023/07/23 18:12:53;;;;;;;4.23;3.83;;;22.00;1.00;;;;;;2612466;54;20471;-69
2023/07/23 18:22:40;;;;;;;3.57;3.37;;;21.80;1.00;;;;;;2614597;39;20860;-69
2023/07/23 18:28:29;;;;;;;3.40;3.20;;;21.70;1.00;;;;;;2612845;54;20426;-68
2023/07/23 18:34:16;;;;;;;3.60;3.30;;;21.60;1.00;;;;;;2614231;46;20507;-68
2023/07/23 18:40:06;;;;;;;3.00;2.90;;;21.40;1.00;;;;;;2611344;54;20135;-69
2023/07/23 18:45:54;;;;;;;3.40;3.20;;;21.30;1.00;;;;;;2611579;54;20396;-67
2023/07/23 18:51:42;;;;;;;2.70;2.60;;;21.30;1.00;;;;;;2610294;54;20133;-67
2023/07/23 18:57:29;;;;;;;3.17;2.87;;;21.30;1.00;;;;;;2612666;54;20149;-71
2023/07/23 19:03:17;;;;;;;2.80;2.70;;;21.20;1.00;;;;;;2614445;54;20138;-70
2023/07/23 19:09:06;;;;;;;2.87;2.70;;;21.20;1.00;;;;;;2613349;39;20698;-68
2023/07/23 19:14:54;;;;;;;3.13;2.93;;;21.00;1.00;;;;;;2613657;54;20410;-70
2023/07/23 19:24:07;;;;;;;2.83;2.20;;;20.70;1.00;;;;;;2613429;54;20487;-69
2023/07/23 19:29:55;;;;;;;1.73;1.63;;;20.40;1.00;;;;;;2612468;54;20387;-69
2023/07/23 19:35:44;;;;;;;2.47;2.20;;;20.00;1.00;;;;;;2609184;54;20263;-68
2023/07/23 19:41:33;;;;;;;3.37;1.30;;;19.40;1.00;;;;;;2610680;54;20582;-69
2023/07/23 19:47:21;;;;;;;1.30;0.93;;;19.00;1.00;;;;;;2610612;54;20418;-69
2023/07/23 19:53:10;;;;;;;4.03;1.67;;;18.80;1.00;;;;;;2613224;54;20130;-69
2023/07/23 19:58:58;;;;;;;2.30;1.33;;;18.60;58.00;;;;;;2613963;54;20431;-70
2023/07/23 20:04:46;;;;;;;4.03;1.20;;;18.50;83.40;;;;;;2613229;39;20540;-69
2023/07/23 20:10:35;;;;;;;3.57;1.93;;;18.40;99.80;;;;;;2614012;54;20133;-69
2023/07/23 20:16:23;;;;;;;3.73;1.93;;;18.40;99.90;;;;;;2613577;54;20403;-67
2023/07/23 20:22:22;;;;;;;2.23;1.50;;;18.30;99.90;;;;;;2612649;54;20138;-70
2023/07/23 20:28:10;;;;;;;3.13;2.07;;;18.40;99.90;;;;;;2611636;54;20235;-70
2023/07/23 20:33:59;;;;;;;3.00;1.80;;;18.30;99.90;;;;;;2612719;39;21261;-69
2023/07/23 20:39:46;;;;;;;2.20;1.50;;;18.30;99.90;;;;;;2613506;54;20387;-67
2023/07/23 20:45:34;;;;;;;3.30;2.00;;;18.30;99.90;;;;;;2611812;54;20427;-69
2023/07/23 20:51:22;;;;;;;2.93;2.00;;;18.20;99.90;;;;;;2612129;39;20511;-68
2023/07/23 20:57:09;;;;;;;3.47;2.33;;;18.10;99.90;;;;;;2609610;54;20444;-69
2023/07/23 21:02:57;;;;;;;3.40;2.20;;;18.00;99.90;;;;;;2612212;31;20567;-68
2023/07/23 21:08:45;;;;;;;2.00;1.70;;;18.00;99.90;;;;;;2610077;54;20419;-66
2023/07/23 21:14:34;;;;;;;5.33;2.50;;;18.00;99.90;;;;;;2611425;54;20157;-68
2023/07/23 21:24:08;;;;;;;2.70;2.20;;;18.00;99.90;;;;;;2611153;54;20411;-69
2023/07/23 21:29:56;;;;;;;3.50;2.53;;;18.10;99.90;;;;;;2609901;54;20427;-68
2023/07/23 21:35:46;;;;;;;3.93;2.80;;;18.10;99.90;;;;;;2610281;54;20130;-70
2023/07/23 21:41:36;;;;;;;6.73;2.77;;;18.30;99.90;;;;;;2610020;54;20392;-69
2023/07/23 21:47:26;;;;;;;4.23;3.20;;;18.10;99.90;;;;;;2610926;54;20476;-69
2023/07/23 21:53:13;;;;;;;5.80;3.60;;;18.20;99.90;;;;;;2610240;54;20426;-69
2023/07/23 21:59:01;;;;;;;4.80;2.70;;;18.10;99.90;;;;;;2610307;54;20129;-68
2023/07/23 22:04:49;;;;;;;4.00;3.30;;;18.10;99.90;;;;;;2610084;46;20174;-68
2023/07/23 22:10:37;;;;;;;5.93;3.50;;;18.00;99.90;;;;;;2611039;39;20705;-69
2023/07/23 22:13:40;;;;;;;4.30;3.40;;;18.10;99.90;;;;;;2610951;54;20399;-69
2023/07/23 22:16:06;;;;;;;7.17;2.70;;;18.10;99.90;;;;;;2613927;54;20193;-70
2023/07/23 22:21:54;;;;;;;4.50;4.00;;;18.00;99.90;;;;;;2613729;54;20189;-69
2023/07/23 22:27:41;;;;;;;6.40;3.53;;;18.00;99.90;;;;;;2609951;54;20134;-68
2023/07/23 22:33:29;;;;;;;6.37;3.50;;;18.00;99.90;;;;;;2611093;54;20147;-69
2023/07/23 22:39:17;;;;;;;6.77;4.47;;;18.00;99.90;;;;;;2614514;54;20134;-69
2023/07/23 22:45:05;;;;;;;5.97;3.47;;;18.00;99.90;;;;;;2610940;54;20151;-68
2023/07/23 22:50:53;;;;;;;5.30;3.10;;;18.00;99.90;;;;;;2610249;54;20435;-68
2023/07/23 22:56:43;;;;;;;5.90;3.43;;;18.00;99.90;;;;;;2611734;54;20130;-69
2023/07/23 23:02:31;;;;;;;4.50;4.10;;;18.00;99.90;;;;;;2611062;39;20810;-68
2023/07/23 23:08:19;;;;;;;5.00;3.83;;;18.00;99.90;;;;;;2610889;54;20130;-68
2023/07/23 23:14:07;;;;;;;7.10;3.97;;;18.00;99.90;;;;;;2609919;54;20151;-69
2023/07/23 23:24:07;;;;;;;5.33;4.03;;;18.10;99.90;;;;;;2609880;54;20411;-69
2023/07/23 23:29:54;;;;;;;5.47;4.10;;;18.00;99.90;;;;;;2610695;54;20527;-68
2023/07/23 23:35:42;;;;;;;5.27;4.23;;;17.90;99.90;;;;;;2608644;54;20122;-70
2023/07/23 23:41:31;;;;;;;6.40;3.80;;;17.80;99.90;;;;;;2610216;54;20154;-69
2023/07/23 23:54:03;;;;;;;4.93;3.50;;;17.50;99.90;;;;;;2609603;54;20467;-69
2023/07/23 23:59:51;;;;;;;6.50;4.10;;;17.50;99.90;;;;;;2609506;54;20705;-69
